Grantsburg, WI

2:07 AM CST on February 12, 2016 (GMT -0600)
WIDOT | | Change Station
CLOSE
Current Station
Personal Weather Station
Location: Grantsburg, WI
Elevation: 930 ft
Nearby Weather Stations

Elev 930 ft 45.77 °N, 92.72 °W | Updated 1 hour ago

Overcast
Overcast
14.0 °F
Feels Like 14.0 °F
N
0.0
Wind Variable Wind from East
Gusts 0.0 mph

Today
High -- | Low -- °F
--% Chance of Precip.
Yesterday
High -- | Low -- °F
Precip. -- in
Pressure 30.16 in
Visibility 10.0 miles
Clouds Overcast 3200 ft
Dew Point 11.0 °F
Humidity 85%
Rainfall in
Snow Depth Not available.
7:18 AM 5:32 PM
Waxing Crescent, 18% visible
METAR KRZN 120750Z AUTO 33010KT 10SM OVC032 M10/M16 A3016 RMK AO2 T11011159
Pressure 30.16 in
Visibility 10.0 miles
Clouds Overcast 3200 ft
Dew Point 11.0 °F
Humidity 85%
Rainfall in
Snow Depth Not available.
7:18 AM 5:32 PM
Waxing Crescent, 18% visible
METAR KRZN 120750Z AUTO 33010KT 10SM OVC032 M10/M16 A3016 RMK AO2 T11011159

10-Day Weather Forecast

Almanac

Astronomy

Feb. 12, 2016 Rise Set
Actual Time
Civil Twilight
Nautical Twilight
Astronomical Twilight
Moon
Length of Visible Light
Length of Day
Tomorrow will be .
, % of the Moon is Illuminated

Today's Extremes

State Highs State Lows

Community

WunderPhotos

Upload Photos

1,892,278 photos uploaded!

WunderBlog® & News

Nearby

Air Quality

  Air Quality AQ Index Pollutant
Not available.

Snow Depth

Station Depth Elevation

Earthquake Activity

City Distance Mag. Time & Date
Minimum magnitude displayed is 2.5.

Coastal Water Temperatures

Place Temperature

Stations

Nearby Weather Stations

Station Location Temp. Windchill Dew Point Humidity Wind Precip. Elev Updated Type
                   

Watches & Warnings

There are currently no watches in effect.